sensor_id;sensor_type;location;lat;lon;timestamp;temperature;humidity
29255;DHT22;16277;48.890;2.306;2022-12-18T05:13:48;5.30;95.20
29255;DHT22;16277;48.890;2.306;2022-12-18T05:28:53;5.50;95.30
29255;DHT22;16277;48.890;2.306;2022-12-18T05:43:58;5.40;95.40
29255;DHT22;16277;48.890;2.306;2022-12-18T05:59:02;5.50;95.10
29255;DHT22;16277;48.890;2.306;2022-12-18T06:14:08;5.30;95.00
29255;DHT22;16277;48.890;2.306;2022-12-18T06:29:13;5.20;95.10
29255;DHT22;16277;48.890;2.306;2022-12-18T06:44:17;5.10;95.00
29255;DHT22;16277;48.890;2.306;2022-12-18T06:59:22;5.20;95.00
29255;DHT22;16277;48.890;2.306;2022-12-18T07:14:28;5.30;94.50
29255;DHT22;16277;48.890;2.306;2022-12-18T07:29:32;5.30;94.60
29255;DHT22;16277;48.890;2.306;2022-12-18T07:44:37;5.30;94.40
29255;DHT22;16277;48.890;2.306;2022-12-18T07:59:42;5.10;94.50
29255;DHT22;16277;48.890;2.306;2022-12-18T08:14:46;5.10;94.50
29255;DHT22;16277;48.890;2.306;2022-12-18T08:29:51;5.00;94.40
29255;DHT22;16277;48.890;2.306;2022-12-18T08:44:55;4.60;94.60
29255;DHT22;16277;48.890;2.306;2022-12-18T09:00:00;5.10;94.30
29255;DHT22;16277;48.890;2.306;2022-12-18T09:15:05;5.50;94.10
29255;DHT22;16277;48.890;2.306;2022-12-18T09:30:10;5.50;93.90
29255;DHT22;16277;48.890;2.306;2022-12-18T09:45:15;5.50;94.00
29255;DHT22;16277;48.890;2.306;2022-12-18T10:00:23;5.70;93.90
29255;DHT22;16277;48.890;2.306;2022-12-18T10:15:32;5.70;94.00
29255;DHT22;16277;48.890;2.306;2022-12-18T10:30:39;5.90;94.00
29255;DHT22;16277;48.890;2.306;2022-12-18T10:45:59;6.10;93.70
29255;DHT22;16277;48.890;2.306;2022-12-18T11:01:10;6.30;93.60
29255;DHT22;16277;48.890;2.306;2022-12-18T11:16:19;6.50;93.60
29255;DHT22;16277;48.890;2.306;2022-12-18T11:31:26;6.50;93.70
29255;DHT22;16277;48.890;2.306;2022-12-18T11:46:36;6.60;93.70
29255;DHT22;16277;48.890;2.306;2022-12-18T12:01:50;6.50;94.10
29255;DHT22;16277;48.890;2.306;2022-12-18T12:16:58;6.90;94.20
29255;DHT22;16277;48.890;2.306;2022-12-18T12:32:18;7.10;93.80
29255;DHT22;16277;48.890;2.306;2022-12-18T12:47:28;7.40;94.10
29255;DHT22;16277;48.890;2.306;2022-12-18T13:02:42;7.50;94.00
29255;DHT22;16277;48.890;2.306;2022-12-18T13:17:48;7.60;94.10
29255;DHT22;16277;48.890;2.306;2022-12-18T13:49:22;7.50;94.70
29255;DHT22;16277;48.890;2.306;2022-12-18T14:04:30;7.70;95.10
29255;DHT22;16277;48.890;2.306;2022-12-18T14:19:35;7.90;95.10
29255;DHT22;16277;48.890;2.306;2022-12-18T14:34:40;7.90;95.40
29255;DHT22;16277;48.890;2.306;2022-12-18T14:49:45;8.10;95.80
29255;DHT22;16277;48.890;2.306;2022-12-18T15:04:59;8.00;96.10
29255;DHT22;16277;48.890;2.306;2022-12-18T15:20:10;8.20;96.50
29255;DHT22;16277;48.890;2.306;2022-12-18T15:35:17;8.20;96.50
29255;DHT22;16277;48.890;2.306;2022-12-18T15:50:22;8.50;97.00
29255;DHT22;16277;48.890;2.306;2022-12-18T16:05:29;8.30;97.40
29255;DHT22;16277;48.890;2.306;2022-12-18T16:20:33;8.30;97.90
29255;DHT22;16277;48.890;2.306;2022-12-18T16:35:39;8.10;98.40
29255;DHT22;16277;48.890;2.306;2022-12-18T16:50:44;8.40;99.10
29255;DHT22;16277;48.890;2.306;2022-12-18T17:05:49;8.50;99.40
29255;DHT22;16277;48.890;2.306;2022-12-18T17:20:59;8.50;99.80
29255;DHT22;16277;48.890;2.306;2022-12-18T17:36:04;8.70;99.90
29255;DHT22;16277;48.890;2.306;2022-12-18T17:51:10;8.80;99.90
29255;DHT22;16277;48.890;2.306;2022-12-18T18:06:14;8.90;99.90
29255;DHT22;16277;48.890;2.306;2022-12-18T18:21:19;8.80;99.90
29255;DHT22;16277;48.890;2.306;2022-12-18T18:36:24;8.90;99.90
29255;DHT22;16277;48.890;2.306;2022-12-18T18:51:29;9.00;99.90
29255;DHT22;16277;48.890;2.306;2022-12-18T19:06:37;9.10;99.90
29255;DHT22;16277;48.890;2.306;2022-12-18T19:21:42;9.10;99.90
29255;DHT22;16277;48.890;2.306;2022-12-18T19:36:47;9.20;99.90
29255;DHT22;16277;48.890;2.306;2022-12-18T19:51:52;9.30;99.90
29255;DHT22;16277;48.890;2.306;2022-12-18T20:06:56;9.20;99.90
29255;DHT22;16277;48.890;2.306;2022-12-18T20:22:01;9.30;99.90
29255;DHT22;16277;48.890;2.306;2022-12-18T20:37:06;9.40;99.90
29255;DHT22;16277;48.890;2.306;2022-12-18T20:52:13;9.40;99.90
29255;DHT22;16277;48.890;2.306;2022-12-18T21:07:17;9.50;99.90
29255;DHT22;16277;48.890;2.306;2022-12-18T21:22:22;9.50;99.90
29255;DHT22;16277;48.890;2.306;2022-12-18T21:37:27;9.70;99.90
29255;DHT22;16277;48.890;2.306;2022-12-18T21:52:31;9.70;99.90
29255;DHT22;16277;48.890;2.306;2022-12-18T22:07:36;9.60;99.90
29255;DHT22;16277;48.890;2.306;2022-12-18T22:22:41;9.80;99.90
29255;DHT22;16277;48.890;2.306;2022-12-18T22:37:45;9.90;99.90
29255;DHT22;16277;48.890;2.306;2022-12-18T22:52:49;10.00;99.90
29255;DHT22;16277;48.890;2.306;2022-12-18T23:07:54;9.90;99.90
29255;DHT22;16277;48.890;2.306;2022-12-18T23:22:59;9.90;99.90
29255;DHT22;16277;48.890;2.306;2022-12-18T23:38:03;9.90;99.90
29255;DHT22;16277;48.890;2.306;2022-12-18T23:53:08;9.80;99.90
